createdAt,value
2022-08-11T00:00:16.928Z,2.13
2022-08-11T00:03:20.141Z,2.17
2022-08-11T00:06:42.128Z,2.10
2022-08-11T00:09:43.701Z,2.10
2022-08-11T00:12:56.672Z,2.07
2022-08-11T00:15:59.048Z,1.90
2022-08-11T00:19:02.367Z,2.20
2022-08-11T00:22:06.550Z,2.30
2022-08-11T00:25:11.230Z,2.10
2022-08-11T00:28:31.950Z,2.57
2022-08-11T00:31:35.424Z,2.17
2022-08-11T00:34:38.208Z,2.13
2022-08-11T00:37:44.774Z,2.07
2022-08-11T00:40:57.056Z,2.17
2022-08-11T00:44:14.762Z,2.20
2022-08-11T00:47:31.413Z,2.03
2022-08-11T00:51:12.317Z,2.43
2022-08-11T00:55:14.621Z,2.60
2022-08-11T00:58:24.808Z,2.20
2022-08-11T01:01:37.087Z,2.17
2022-08-11T01:04:56.972Z,2.10
2022-08-11T01:08:21.961Z,2.30
2022-08-11T01:11:55.501Z,2.30
2022-08-11T01:15:56.995Z,2.00
2022-08-11T01:20:45.576Z,2.37
2022-08-11T01:23:31.172Z,2.37
2022-08-11T01:27:18.930Z,2.30
2022-08-11T01:30:44.281Z,2.23
2022-08-11T01:34:07.197Z,2.33
2022-08-11T01:37:17.471Z,2.47
2022-08-11T01:40:30.634Z,2.40
2022-08-11T01:44:22.024Z,2.50
2022-08-11T01:47:54.093Z,2.53
2022-08-11T01:51:19.676Z,2.53
2022-08-11T01:54:51.273Z,2.30
2022-08-11T01:58:13.298Z,2.50
2022-08-11T02:01:45.694Z,2.47
2022-08-11T02:04:54.846Z,2.10
2022-08-11T02:08:05.262Z,2.30
2022-08-11T02:11:31.125Z,2.50
2022-08-11T02:15:12.295Z,2.30
2022-08-11T02:18:18.493Z,2.60
2022-08-11T02:21:46.364Z,2.30
2022-08-11T02:25:18.385Z,2.30
2022-08-11T02:28:28.943Z,2.43
2022-08-11T02:32:23.748Z,2.73
2022-08-11T02:35:27.777Z,2.43
2022-08-11T02:38:45.239Z,2.27
2022-08-11T02:42:34.915Z,2.60
2022-08-11T02:45:47.235Z,2.23
2022-08-11T02:49:22.314Z,2.40
2022-08-11T02:52:45.418Z,2.60
2022-08-11T02:56:22.869Z,2.30
2022-08-11T03:00:00.423Z,2.50
2022-08-11T03:03:17.418Z,2.40
2022-08-11T03:06:35.574Z,2.53
2022-08-11T03:09:47.157Z,2.30
2022-08-11T03:13:34.853Z,2.63
2022-08-11T03:16:54.789Z,2.50
2022-08-11T03:20:23.491Z,2.50
2022-08-11T03:23:31.236Z,2.50
2022-08-11T03:26:56.174Z,2.53
2022-08-11T03:30:26.479Z,2.77
2022-08-11T03:33:52.108Z,2.43
2022-08-11T03:37:16.084Z,2.40
2022-08-11T03:40:39.315Z,2.43
2022-08-11T03:44:34.141Z,2.43
2022-08-11T03:47:55.711Z,2.77
2022-08-11T03:51:25.076Z,2.37
2022-08-11T03:54:45.955Z,2.63
2022-08-11T03:58:02.874Z,2.80
2022-08-11T04:01:35.485Z,2.47
2022-08-11T04:05:07.123Z,2.63
2022-08-11T04:08:34.160Z,2.60
2022-08-11T04:11:54.902Z,2.70
2022-08-11T04:15:45.099Z,2.60
2022-08-11T04:19:21.397Z,2.90
2022-08-11T04:22:48.373Z,2.67
2022-08-11T04:26:34.271Z,2.47
2022-08-11T04:30:09.193Z,2.60
2022-08-11T04:33:52.058Z,2.63
2022-08-11T04:37:34.129Z,2.77
2022-08-11T04:41:08.779Z,3.10
2022-08-11T04:44:45.545Z,2.50
2022-08-11T04:48:40.488Z,2.80
2022-08-11T04:52:12.847Z,2.50
2022-08-11T04:55:40.839Z,2.57
2022-08-11T04:59:07.832Z,2.87
2022-08-11T05:02:28.137Z,2.67
2022-08-11T05:05:57.543Z,2.70
2022-08-11T05:09:04.964Z,3.10
2022-08-11T05:12:34.231Z,2.40
2022-08-11T05:16:05.876Z,2.40
2022-08-11T05:19:26.202Z,2.47
2022-08-11T05:22:49.174Z,2.60
2022-08-11T05:26:47.541Z,2.70
2022-08-11T05:30:00.376Z,2.90
2022-08-11T05:33:33.168Z,2.50
2022-08-11T05:36:46.776Z,2.90
2022-08-11T05:40:14.584Z,2.30
2022-08-11T05:43:35.534Z,2.40
2022-08-11T05:47:01.245Z,2.73
2022-08-11T05:50:32.740Z,2.63
2022-08-11T05:53:53.513Z,2.77
2022-08-11T05:56:58.566Z,2.70
2022-08-11T06:00:10.320Z,2.57
2022-08-11T06:03:22.802Z,2.40
2022-08-11T06:06:27.017Z,2.60
2022-08-11T06:09:37.197Z,2.57
2022-08-11T06:12:40.750Z,2.70
2022-08-11T06:15:48.067Z,2.50
2022-08-11T06:18:49.868Z,2.50
2022-08-11T06:21:53.059Z,2.47
2022-08-11T06:24:59.851Z,2.43
2022-08-11T06:28:05.267Z,2.73
2022-08-11T06:31:24.052Z,2.60
2022-08-11T06:34:39.022Z,2.40
2022-08-11T06:38:11.952Z,2.17
2022-08-11T06:41:30.498Z,2.53
2022-08-11T06:44:44.176Z,2.40
2022-08-11T06:47:47.690Z,2.53
2022-08-11T06:51:14.224Z,2.57
2022-08-11T06:54:15.867Z,2.93
2022-08-11T06:57:37.567Z,2.90
2022-08-11T07:00:39.477Z,2.50
2022-08-11T07:03:47.309Z,2.20
2022-08-11T07:07:19.999Z,2.40
2022-08-11T07:10:51.863Z,2.73
2022-08-11T07:14:17.934Z,2.80
2022-08-11T07:17:24.920Z,2.40
2022-08-11T07:21:05.223Z,2.83
2022-08-11T07:25:01.871Z,2.80
2022-08-11T07:28:30.532Z,2.60
2022-08-11T07:31:37.101Z,2.80
2022-08-11T07:34:42.905Z,2.40
2022-08-11T07:37:50.782Z,2.90
2022-08-11T07:41:03.092Z,2.60
2022-08-11T07:44:11.563Z,2.50
2022-08-11T07:47:33.064Z,2.77
2022-08-11T07:50:56.249Z,2.77
2022-08-11T07:54:07.587Z,2.60
2022-08-11T07:58:02.221Z,2.83
2022-08-11T08:01:22.362Z,2.83
2022-08-11T08:04:46.804Z,2.97
2022-08-11T08:08:07.513Z,2.70
2022-08-11T08:11:27.826Z,2.70
2022-08-11T08:14:48.561Z,2.80
2022-08-11T08:18:20.450Z,2.80
2022-08-11T08:21:16.763Z,2.92
2022-08-11T08:24:20.996Z,2.58
2022-08-11T08:27:25.854Z,2.80
2022-08-11T08:30:48.252Z,2.75
2022-08-11T08:33:50.008Z,2.90
2022-08-11T08:36:51.896Z,2.70
2022-08-11T08:39:53.980Z,2.80
2022-08-11T08:42:58.324Z,2.90
2022-08-11T08:46:00.455Z,2.60
2022-08-11T08:49:03.811Z,2.65
2022-08-11T08:52:21.064Z,2.90
2022-08-11T08:55:30.841Z,3.10
2022-08-11T08:58:36.288Z,2.97
2022-08-11T09:01:50.888Z,2.72
2022-08-11T09:04:53.232Z,2.88
2022-08-11T09:07:58.128Z,2.75
2022-08-11T09:11:21.396Z,2.70
2022-08-11T09:14:50.336Z,2.60
2022-08-11T09:18:03.548Z,2.80
2022-08-11T09:21:05.689Z,2.88
2022-08-11T09:24:26.581Z,2.80
2022-08-11T09:27:28.486Z,2.75
2022-08-11T09:30:30.577Z,2.50
2022-08-11T09:33:33.361Z,2.50
2022-08-11T09:36:53.894Z,2.65
2022-08-11T09:40:15.308Z,2.50
2022-08-11T09:43:37.982Z,2.45
2022-08-11T09:46:41.515Z,2.60
2022-08-11T09:49:45.199Z,2.67
2022-08-11T09:53:16.843Z,2.42
2022-08-11T09:56:40.945Z,2.67
2022-08-11T09:59:42.485Z,2.15
2022-08-11T10:02:47.153Z,2.33
2022-08-11T10:06:11.239Z,2.20
2022-08-11T10:09:17.869Z,2.25
2022-08-11T10:12:37.190Z,2.50
2022-08-11T10:16:14.820Z,2.40
2022-08-11T10:19:06.358Z,2.25
2022-08-11T10:22:26.872Z,2.20
2022-08-11T10:25:47.572Z,2.00
2022-08-11T10:29:10.022Z,2.30
2022-08-11T10:32:31.629Z,2.20
2022-08-11T10:35:33.544Z,2.45
2022-08-11T10:38:35.778Z,2.30
2022-08-11T10:42:06.555Z,2.40
2022-08-11T10:45:28.415Z,2.55
2022-08-11T10:48:34.929Z,2.33
2022-08-11T10:51:58.604Z,2.33
2022-08-11T10:55:18.702Z,2.20
2022-08-11T10:58:40.236Z,2.13
2022-08-11T11:01:44.075Z,2.13
2022-08-11T11:05:09.160Z,2.30
2022-08-11T11:08:33.836Z,2.38
2022-08-11T11:11:56.822Z,2.17
2022-08-11T11:15:19.760Z,2.10
2022-08-11T11:18:25.148Z,2.55
2022-08-11T11:21:27.275Z,2.33
2022-08-11T11:24:48.221Z,2.25
2022-08-11T11:28:21.372Z,2.00
2022-08-11T11:31:40.976Z,2.30
2022-08-11T11:35:11.016Z,2.50
2022-08-11T11:38:14.114Z,2.30
2022-08-11T11:41:25.113Z,2.13
2022-08-11T11:44:27.644Z,2.17
2022-08-11T11:47:31.161Z,2.00
2022-08-11T11:50:37.195Z,1.90
2022-08-11T11:53:38.653Z,2.08
2022-08-11T11:56:42.548Z,1.85
2022-08-11T12:00:03.349Z,2.13
2022-08-11T12:03:12.012Z,2.33
2022-08-11T12:06:14.477Z,2.13
2022-08-11T12:09:18.355Z,2.30
2022-08-11T12:12:39.705Z,2.10
2022-08-11T12:16:23.777Z,2.25
2022-08-11T12:19:08.409Z,2.17
2022-08-11T12:22:28.990Z,2.03
2022-08-11T12:26:04.438Z,2.10
2022-08-11T12:29:12.490Z,2.20
2022-08-11T12:32:14.552Z,2.50
2022-08-11T12:35:16.545Z,1.90
2022-08-11T12:38:26.046Z,2.28
2022-08-11T12:41:51.685Z,2.30
2022-08-11T12:45:22.252Z,2.50
2022-08-11T12:49:00.971Z,2.13
2022-08-11T12:52:12.734Z,2.20
2022-08-11T12:55:41.782Z,2.13
2022-08-11T12:58:45.372Z,2.10
2022-08-11T13:02:06.470Z,2.08
2022-08-11T13:05:12.611Z,1.90
2022-08-11T13:08:17.310Z,2.25
2022-08-11T13:11:56.555Z,2.20
2022-08-11T13:15:00.477Z,2.30
2022-08-11T13:18:04.774Z,2.10
2022-08-11T13:21:06.404Z,1.80
2022-08-11T13:24:08.113Z,2.17
2022-08-11T13:27:12.317Z,2.30
2022-08-11T13:30:37.044Z,1.98
2022-08-11T13:33:43.078Z,2.15
2022-08-11T13:36:45.787Z,2.10
2022-08-11T13:39:47.678Z,2.10
2022-08-11T13:42:51.083Z,2.20
2022-08-11T13:46:14.020Z,2.20
2022-08-11T13:49:17.162Z,2.22
2022-08-11T13:52:19.328Z,2.45
2022-08-11T13:55:45.526Z,2.78
2022-08-11T13:58:45.719Z,2.15
2022-08-11T14:02:22.744Z,2.10
2022-08-11T14:05:28.932Z,1.90
2022-08-11T14:08:38.436Z,1.90
2022-08-11T14:12:19.951Z,2.13
2022-08-11T14:15:31.908Z,2.20
2022-08-11T14:18:34.412Z,2.40
2022-08-11T14:21:56.831Z,2.20
2022-08-11T14:24:58.740Z,2.00
2022-08-11T14:28:32.503Z,2.20
2022-08-11T14:31:25.363Z,1.90
2022-08-11T14:34:29.361Z,2.17
2022-08-11T14:37:30.918Z,2.45
2022-08-11T14:40:51.087Z,2.00
2022-08-11T14:44:14.841Z,2.38
2022-08-11T14:47:22.900Z,2.30
2022-08-11T14:50:28.908Z,2.08
2022-08-11T14:53:31.613Z,2.22
2022-08-11T14:56:37.046Z,2.20
2022-08-11T14:59:39.018Z,2.10
2022-08-11T15:03:00.648Z,2.28
2022-08-11T15:06:05.009Z,2.10
2022-08-11T15:09:09.006Z,2.10
2022-08-11T15:12:33.260Z,1.98
2022-08-11T15:16:10.656Z,2.15
2022-08-11T15:19:14.496Z,2.10
2022-08-11T15:22:35.017Z,2.15
2022-08-11T15:25:38.913Z,2.10
2022-08-11T15:29:04.591Z,2.10
2022-08-11T15:32:22.725Z,2.15
2022-08-11T15:35:44.424Z,2.38
2022-08-11T15:39:03.732Z,1.85
2022-08-11T15:42:33.673Z,2.03
2022-08-11T15:45:49.053Z,2.22
2022-08-11T15:48:57.879Z,2.10
2022-08-11T15:52:07.967Z,2.20
2022-08-11T15:55:10.399Z,2.13
2022-08-11T15:58:32.065Z,2.20
2022-08-11T16:01:55.412Z,2.03
2022-08-11T16:04:59.675Z,2.00
2022-08-11T16:08:02.468Z,2.15
2022-08-11T16:11:08.781Z,1.85
2022-08-11T16:14:31.844Z,2.10
2022-08-11T16:17:37.858Z,1.83
2022-08-11T16:20:39.565Z,1.80
2022-08-11T16:23:44.811Z,1.88
2022-08-11T16:27:08.004Z,2.10
2022-08-11T16:30:10.604Z,2.00
2022-08-11T16:33:48.104Z,1.92
2022-08-11T16:36:54.124Z,2.20
2022-08-11T16:39:55.775Z,2.30
2022-08-11T16:43:17.141Z,2.20
2022-08-11T16:46:39.005Z,2.17
2022-08-11T16:49:53.246Z,2.00
2022-08-11T16:52:54.776Z,2.03
2022-08-11T16:55:59.972Z,2.20
2022-08-11T16:59:18.171Z,1.90
2022-08-11T17:02:41.528Z,2.30
2022-08-11T17:06:11.158Z,2.22
2022-08-11T17:09:37.939Z,2.00
2022-08-11T17:13:00.198Z,2.10
2022-08-11T17:16:07.042Z,2.38
2022-08-11T17:19:16.960Z,2.35
2022-08-11T17:22:38.500Z,2.17
2022-08-11T17:26:03.543Z,2.08
2022-08-11T17:29:04.722Z,2.00
2022-08-11T17:32:56.383Z,2.10
2022-08-11T17:35:59.877Z,1.70
2022-08-11T17:39:02.225Z,1.90
2022-08-11T17:42:23.168Z,2.00
2022-08-11T17:46:00.512Z,2.30
2022-08-11T17:49:03.717Z,2.10
2022-08-11T17:52:26.073Z,1.83
2022-08-11T17:55:51.751Z,2.00
2022-08-11T17:59:15.363Z,2.10
2022-08-11T18:02:45.991Z,2.00
2022-08-11T18:05:49.195Z,2.08
2022-08-11T18:09:09.938Z,1.98
2022-08-11T18:12:30.966Z,2.10
2022-08-11T18:15:55.596Z,2.08
2022-08-11T18:19:16.697Z,2.33
2022-08-11T18:22:42.104Z,2.10
2022-08-11T18:26:07.354Z,2.13
2022-08-11T18:29:29.923Z,2.00
2022-08-11T18:32:59.162Z,2.00
2022-08-11T18:36:34.036Z,2.28
2022-08-11T18:40:00.923Z,2.20
2022-08-11T18:43:27.260Z,2.10
2022-08-11T18:46:52.698Z,1.98
2022-08-11T18:50:21.089Z,1.90
2022-08-11T18:54:00.356Z,2.20
2022-08-11T18:57:24.224Z,2.15
2022-08-11T19:00:46.103Z,2.17
2022-08-11T19:04:10.858Z,2.30
2022-08-11T19:07:32.984Z,2.10
2022-08-11T19:10:53.900Z,2.05
2022-08-11T19:14:14.780Z,2.13
2022-08-11T19:17:43.563Z,2.35
2022-08-11T19:21:06.754Z,2.30
2022-08-11T19:24:27.708Z,2.40
2022-08-11T19:27:48.953Z,2.45
2022-08-11T19:31:09.800Z,2.47
2022-08-11T19:34:32.704Z,2.45
2022-08-11T19:37:54.665Z,2.20
2022-08-11T19:41:18.470Z,2.63
2022-08-11T19:44:58.770Z,2.40
2022-08-11T19:48:31.798Z,2.50
2022-08-11T19:51:54.507Z,2.28
2022-08-11T19:55:15.583Z,2.83
2022-08-11T19:58:36.135Z,2.65
2022-08-11T20:02:01.682Z,2.63
2022-08-11T20:05:34.670Z,2.50
2022-08-11T20:09:00.126Z,2.90
2022-08-11T20:12:23.135Z,3.30
2022-08-11T20:15:46.034Z,2.75
2022-08-11T20:19:09.231Z,2.50
2022-08-11T20:22:30.969Z,2.95
2022-08-11T20:25:55.797Z,3.05
2022-08-11T20:29:26.144Z,3.30
2022-08-11T20:32:46.913Z,3.42
2022-08-11T20:36:08.158Z,3.33
2022-08-11T20:39:29.467Z,3.50
2022-08-11T20:42:52.148Z,3.20
2022-08-11T20:46:12.518Z,3.25
2022-08-11T20:49:44.923Z,3.47
2022-08-11T20:53:11.697Z,3.08
2022-08-11T20:56:33.210Z,3.08
2022-08-11T20:59:56.874Z,3.20
2022-08-11T21:03:35.530Z,3.25
2022-08-11T21:06:57.326Z,3.08
2022-08-11T21:10:23.215Z,3.40
2022-08-11T21:13:51.486Z,3.53
2022-08-11T21:17:27.784Z,3.20
2022-08-11T21:20:50.388Z,3.28
2022-08-11T21:24:12.866Z,3.53
2022-08-11T21:27:36.900Z,2.78
2022-08-11T21:30:58.374Z,3.03
2022-08-11T21:34:19.715Z,2.83
2022-08-11T21:37:39.675Z,3.10
2022-08-11T21:41:01.621Z,3.72
2022-08-11T21:44:24.864Z,3.30
2022-08-11T21:47:45.623Z,2.90
2022-08-11T21:51:05.384Z,3.20
2022-08-11T21:54:26.257Z,3.47
2022-08-11T21:57:50.208Z,2.72
2022-08-11T22:01:11.068Z,3.10
2022-08-11T22:04:34.955Z,3.00
2022-08-11T22:07:56.858Z,3.13
2022-08-11T22:11:31.802Z,3.30
2022-08-11T22:14:52.913Z,3.10
2022-08-11T22:18:12.650Z,3.40
2022-08-11T22:22:01.216Z,2.90
2022-08-11T22:25:16.605Z,3.30
2022-08-11T22:28:38.854Z,3.10
2022-08-11T22:32:00.142Z,2.80
2022-08-11T22:35:22.345Z,3.10
2022-08-11T22:38:44.108Z,3.10
2022-08-11T22:42:04.963Z,2.97
2022-08-11T22:45:25.265Z,2.63
2022-08-11T22:48:48.247Z,2.67
2022-08-11T22:52:09.145Z,2.60
2022-08-11T22:55:29.387Z,2.70
2022-08-11T22:58:50.430Z,2.57
2022-08-11T23:02:11.852Z,2.60
2022-08-11T23:05:34.008Z,2.40
2022-08-11T23:08:55.882Z,2.53
2022-08-11T23:12:16.852Z,2.30
2022-08-11T23:15:39.176Z,2.23
2022-08-11T23:19:01.357Z,2.50
2022-08-11T23:22:22.183Z,2.80
2022-08-11T23:25:43.797Z,2.20
2022-08-11T23:29:06.100Z,2.30
2022-08-11T23:32:26.549Z,2.23
2022-08-11T23:35:54.938Z,2.10
2022-08-11T23:39:19.467Z,2.43
2022-08-11T23:42:39.418Z,2.50
2022-08-11T23:46:01.133Z,2.60
2022-08-11T23:49:22.350Z,2.10
2022-08-11T23:52:43.581Z,2.33
2022-08-11T23:56:04.941Z,2.60
2022-08-11T23:59:25.312Z,2.30
